createdAt,value
2022-11-03T00:01:39.883Z,99572.09
2022-11-03T00:04:09.864Z,99581.47
2022-11-03T00:06:41.612Z,99582.81
2022-11-03T00:09:12.435Z,99582.47
2022-11-03T00:11:45.221Z,99583.19
2022-11-03T00:14:16.557Z,99586.69
2022-11-03T00:16:45.927Z,99592.84
2022-11-03T00:19:17.184Z,99587.03
2022-11-03T00:21:46.838Z,99596.13
2022-11-03T00:24:16.389Z,99594.78
2022-11-03T00:26:47.578Z,99596.81
2022-11-03T00:29:17.450Z,99595.28
2022-11-03T00:31:46.424Z,99592.53
2022-11-03T00:34:15.135Z,99595.66
2022-11-03T00:36:46.831Z,99592.19
2022-11-03T00:39:16.685Z,99585.06
2022-11-03T00:41:46.523Z,99583.34
2022-11-03T00:44:15.311Z,99573.00
2022-11-03T00:46:45.016Z,99575.38
2022-11-03T00:49:13.685Z,99582.66
2022-11-03T00:51:42.344Z,99574.31
2022-11-03T00:54:10.831Z,99566.66
2022-11-03T00:56:40.651Z,99565.47
2022-11-03T00:59:11.687Z,99562.16
2022-11-03T01:01:46.766Z,99557.84
2022-11-03T01:04:34.707Z,99554.97
2022-11-03T01:07:06.679Z,99548.06
2022-11-03T01:09:38.472Z,99550.94
2022-11-03T01:12:09.364Z,99539.47
2022-11-03T01:14:40.937Z,99532.69
2022-11-03T01:17:12.139Z,99532.31
2022-11-03T01:19:41.940Z,99527.53
2022-11-03T01:22:11.590Z,99528.25
2022-11-03T01:24:41.711Z,99524.91
2022-11-03T01:27:10.978Z,99513.03
2022-11-03T01:29:41.549Z,99512.88
2022-11-03T01:32:12.305Z,99500.72
2022-11-03T01:34:41.565Z,99502.03
2022-11-03T01:37:10.203Z,99499.03
2022-11-03T01:39:38.718Z,99500.47
2022-11-03T01:42:07.498Z,99501.28
2022-11-03T01:44:47.789Z,99500.47
2022-11-03T01:47:24.463Z,99497.00
2022-11-03T01:49:57.897Z,99489.50
2022-11-03T01:52:32.270Z,99491.66
2022-11-03T01:55:05.898Z,99484.88
2022-11-03T01:57:40.070Z,99482.50
2022-11-03T02:00:12.428Z,99486.09
2022-11-03T02:02:41.778Z,99484.16
2022-11-03T02:05:12.484Z,99487.28
2022-11-03T02:07:48.423Z,99489.06
2022-11-03T02:10:18.623Z,99496.69
2022-11-03T02:12:49.788Z,99483.69
2022-11-03T02:15:22.947Z,99480.84
2022-11-03T02:17:53.750Z,99479.50
2022-11-03T02:20:26.626Z,99470.81
2022-11-03T02:23:22.826Z,99468.56
2022-11-03T02:25:56.414Z,99465.78
2022-11-03T02:28:27.132Z,99454.84
2022-11-03T02:31:10.233Z,99451.16
2022-11-03T02:33:50.011Z,99442.69
2022-11-03T02:36:24.169Z,99450.91
2022-11-03T02:38:59.784Z,99452.25
2022-11-03T02:41:32.160Z,99449.13
2022-11-03T02:44:02.793Z,99452.09
2022-11-03T02:46:35.274Z,99452.00
2022-11-03T02:49:04.205Z,99456.66
2022-11-03T02:51:32.636Z,99446.53
2022-11-03T02:54:07.711Z,99448.81
2022-11-03T02:56:45.104Z,99457.25
2022-11-03T02:59:16.474Z,99455.13
2022-11-03T03:01:53.206Z,99458.22
2022-11-03T03:04:28.854Z,99467.50
2022-11-03T03:07:03.268Z,99468.75
2022-11-03T03:09:39.051Z,99469.03
2022-11-03T03:12:11.880Z,99474.34
2022-11-03T03:14:46.058Z,99474.13
2022-11-03T03:17:20.317Z,99461.38
2022-11-03T03:19:54.379Z,99459.25
2022-11-03T03:22:26.146Z,99450.44
2022-11-03T03:25:02.395Z,99447.56
2022-11-03T03:27:36.017Z,99443.78
2022-11-03T03:30:08.705Z,99439.16
2022-11-03T03:32:40.889Z,99433.81
2022-11-03T03:35:14.436Z,99424.63
2022-11-03T03:37:47.820Z,99417.09
2022-11-03T03:40:23.234Z,99402.78
2022-11-03T03:42:54.235Z,99407.91
2022-11-03T03:45:26.480Z,99399.56
2022-11-03T03:47:57.789Z,99391.69
2022-11-03T03:50:28.724Z,99382.63
2022-11-03T03:52:59.364Z,99379.78
2022-11-03T03:55:36.509Z,99386.72
2022-11-03T03:58:07.690Z,99386.00
2022-11-03T04:00:40.328Z,99389.81
2022-11-03T04:03:16.409Z,99374.31
2022-11-03T04:05:47.626Z,99367.63
2022-11-03T04:08:18.336Z,99372.28
2022-11-03T04:11:02.262Z,99365.00
2022-11-03T04:14:04.653Z,99366.22
2022-11-03T04:16:50.720Z,99363.22
2022-11-03T04:19:37.854Z,99360.28
2022-11-03T04:22:19.523Z,99366.22
2022-11-03T04:24:50.021Z,99363.38
2022-11-03T04:27:31.985Z,99365.28
2022-11-03T04:30:11.898Z,99372.44
2022-11-03T04:32:40.610Z,99366.47
2022-11-03T04:35:17.423Z,99371.72
2022-11-03T04:37:48.029Z,99369.44
2022-11-03T04:40:18.707Z,99377.41
2022-11-03T04:42:50.519Z,99377.66
2022-11-03T04:45:25.560Z,99379.06
2022-11-03T04:47:54.591Z,99383.00
2022-11-03T04:50:24.836Z,99384.94
2022-11-03T04:52:57.617Z,99389.56
2022-11-03T04:55:28.340Z,99386.22
2022-11-03T04:58:01.770Z,99393.97
2022-11-03T05:00:31.879Z,99396.69
2022-11-03T05:03:00.628Z,99404.56
2022-11-03T05:05:30.180Z,99407.66
2022-11-03T05:08:00.651Z,99409.56
2022-11-03T05:10:30.905Z,99411.72
2022-11-03T05:13:01.808Z,99405.38
2022-11-03T05:15:36.002Z,99409.69
2022-11-03T05:18:15.326Z,99409.78
2022-11-03T05:20:48.314Z,99401.47
2022-11-03T05:23:17.410Z,99402.41
2022-11-03T05:25:48.889Z,99396.47
2022-11-03T05:28:27.020Z,99389.47
2022-11-03T05:30:57.644Z,99394.00
2022-11-03T05:33:31.095Z,99391.72
2022-11-03T05:36:03.838Z,99392.34
2022-11-03T05:38:34.756Z,99383.16
2022-11-03T05:41:03.946Z,99382.41
2022-11-03T05:43:32.596Z,99371.56
2022-11-03T05:46:04.555Z,99375.84
2022-11-03T05:48:37.186Z,99368.34
2022-11-03T05:51:19.935Z,99374.09
2022-11-03T05:53:52.674Z,99370.88
2022-11-03T05:56:23.848Z,99368.59
2022-11-03T05:58:54.903Z,99365.72
2022-11-03T06:01:30.135Z,99364.91
2022-11-03T06:04:01.028Z,99354.56
2022-11-03T06:06:34.924Z,99357.31
2022-11-03T06:09:10.904Z,99349.06
2022-11-03T06:11:43.653Z,99348.72
2022-11-03T06:14:19.974Z,99345.72
2022-11-03T06:16:58.065Z,99356.56
2022-11-03T06:19:31.949Z,99350.97
2022-11-03T06:22:04.533Z,99358.34
2022-11-03T06:24:35.811Z,99347.72
2022-11-03T06:27:05.041Z,99353.41
2022-11-03T06:29:35.785Z,99350.44
2022-11-03T06:32:12.408Z,99350.28
2022-11-03T06:34:44.942Z,99347.06
2022-11-03T06:37:26.174Z,99346.72
2022-11-03T06:40:02.335Z,99350.28
2022-11-03T06:42:35.290Z,99353.75
2022-11-03T06:45:14.408Z,99352.09
2022-11-03T06:47:44.583Z,99349.25
2022-11-03T06:50:24.286Z,99352.72
2022-11-03T06:52:55.016Z,99358.44
2022-11-03T06:55:28.534Z,99354.06
2022-11-03T06:58:01.546Z,99354.06
2022-11-03T07:00:34.607Z,99355.72
2022-11-03T07:03:22.527Z,99351.31
2022-11-03T07:05:51.559Z,99348.69
2022-11-03T07:08:25.994Z,99347.38
2022-11-03T07:11:02.860Z,99343.09
2022-11-03T07:13:35.973Z,99335.84
2022-11-03T07:16:05.155Z,99337.75
2022-11-03T07:18:42.890Z,99328.22
2022-11-03T07:21:30.824Z,99326.56
2022-11-03T07:24:04.593Z,99321.59
2022-11-03T07:26:35.441Z,99319.31
2022-11-03T07:29:06.074Z,99309.91
2022-11-03T07:31:36.082Z,99311.69
2022-11-03T07:34:15.918Z,99309.66
2022-11-03T07:36:51.230Z,99312.53
2022-11-03T07:39:25.992Z,99308.00
2022-11-03T07:41:55.592Z,99300.97
2022-11-03T07:44:26.056Z,99309.19
2022-11-03T07:46:54.736Z,99300.28
2022-11-03T07:49:30.216Z,99302.16
2022-11-03T07:52:01.483Z,99298.34
2022-11-03T07:54:38.689Z,99295.25
2022-11-03T07:57:16.086Z,99291.44
2022-11-03T07:59:49.434Z,99291.19
2022-11-03T08:02:33.872Z,99295.16
2022-11-03T08:05:05.796Z,99294.06
2022-11-03T08:07:36.881Z,99293.44
2022-11-03T08:10:07.551Z,99297.38
2022-11-03T08:12:36.218Z,99297.22
2022-11-03T08:15:05.752Z,99287.47
2022-11-03T08:17:36.284Z,99286.94
2022-11-03T08:20:11.024Z,99288.81
2022-11-03T08:22:59.126Z,99290.38
2022-11-03T08:33:44.472Z,99260.56
2022-11-03T08:54:24.003Z,99255.28
2022-11-03T08:58:34.825Z,99249.81
2022-11-03T09:02:26.617Z,99244.75
2022-11-03T09:06:04.134Z,99241.44
2022-11-03T09:12:10.647Z,99238.31
2022-11-03T09:15:00.931Z,99242.19
2022-11-03T09:17:30.182Z,99229.63
2022-11-03T09:20:00.022Z,99234.19
2022-11-03T09:22:28.704Z,99238.09
2022-11-03T09:25:03.371Z,99224.00
2022-11-03T09:27:34.263Z,99221.78
2022-11-03T09:30:17.471Z,99224.56
2022-11-03T09:32:47.670Z,99213.34
2022-11-03T09:35:20.682Z,99218.47
2022-11-03T09:37:49.582Z,99216.81
2022-11-03T10:11:23.793Z,99209.38
2022-11-03T10:13:56.324Z,99205.75
2022-11-03T10:16:28.577Z,99213.16
2022-11-03T10:35:59.081Z,99195.13
2022-11-03T10:38:32.453Z,99180.06
2022-11-03T10:41:15.854Z,99172.63
2022-11-03T10:44:02.949Z,99162.84
2022-11-03T10:46:50.166Z,99167.56
2022-11-03T10:49:21.539Z,99166.47
2022-11-03T10:51:54.813Z,99165.19
2022-11-03T10:54:25.768Z,99152.47
2022-11-03T10:57:03.975Z,99150.88
2022-11-03T10:59:39.540Z,99142.47
2022-11-03T11:02:18.176Z,99144.13
2022-11-03T11:05:02.392Z,99141.53
2022-11-03T11:07:36.772Z,99138.91
2022-11-03T11:10:09.171Z,99128.34
2022-11-03T11:12:38.966Z,99116.50
2022-11-03T11:15:38.621Z,99113.34
2022-11-03T11:18:07.142Z,99106.88
2022-11-03T11:20:44.429Z,99104.53
2022-11-03T11:23:49.476Z,99106.19
2022-11-03T11:26:37.883Z,99105.69
2022-11-03T11:29:45.219Z,99108.19
2022-11-03T11:32:56.621Z,99111.16
2022-11-03T11:36:01.677Z,99103.72
2022-11-03T11:38:59.601Z,99107.50
2022-11-03T11:42:17.039Z,99098.94
2022-11-03T11:44:58.221Z,99101.88
2022-11-03T11:47:51.911Z,99086.50
2022-11-03T11:50:34.030Z,99087.16
2022-11-03T11:53:29.139Z,99093.75
2022-11-03T11:56:01.778Z,99084.16
2022-11-03T11:58:43.392Z,99081.91
2022-11-03T12:01:38.011Z,99071.63
2022-11-03T12:04:09.787Z,99065.00
2022-11-03T12:06:41.370Z,99061.97
2022-11-03T12:09:19.106Z,99058.19
2022-11-03T12:11:53.904Z,99056.69
2022-11-03T12:14:26.364Z,99060.66
2022-11-03T12:16:57.683Z,99069.97
2022-11-03T12:19:43.683Z,99074.78
2022-11-03T12:22:13.930Z,99071.16
2022-11-03T12:24:55.655Z,99075.22
2022-11-03T12:27:44.966Z,99074.53
2022-11-03T12:30:17.425Z,99078.97
2022-11-03T12:32:52.131Z,99082.06
2022-11-03T12:35:22.187Z,99087.28
2022-11-03T12:37:50.806Z,99081.00
2022-11-03T12:40:19.160Z,99082.53
2022-11-03T12:42:56.114Z,99079.66
2022-11-03T12:45:25.281Z,99079.66
2022-11-03T12:47:58.759Z,99072.22
2022-11-03T12:50:27.573Z,99079.31
2022-11-03T12:52:58.289Z,99075.03
2022-11-03T12:57:56.098Z,99071.59
2022-11-03T13:00:25.540Z,99068.16
2022-11-03T13:02:56.056Z,99063.50
2022-11-03T13:05:26.279Z,99066.19
2022-11-03T13:08:01.865Z,99067.81
2022-11-03T13:10:30.371Z,99073.13
2022-11-03T13:12:59.181Z,99067.34
2022-11-03T13:15:28.992Z,99071.00
2022-11-03T13:18:17.089Z,99063.25
2022-11-03T13:20:47.318Z,99059.63
2022-11-03T13:23:18.853Z,99052.41
2022-11-03T13:25:50.571Z,99049.41
2022-11-03T13:28:19.314Z,99047.13
2022-11-03T13:30:49.303Z,99051.78
2022-11-03T13:33:19.496Z,99048.63
2022-11-03T13:35:48.108Z,99043.97
2022-11-03T13:38:24.118Z,99045.09
2022-11-03T13:40:57.082Z,99043.09
2022-11-03T13:43:27.532Z,99039.09
2022-11-03T13:46:03.146Z,99045.53
2022-11-03T13:51:23.285Z,99046.50
2022-11-03T13:59:29.302Z,99044.84
2022-11-03T14:04:53.258Z,99046.31
2022-11-03T14:07:29.057Z,99041.34
2022-11-03T14:10:12.302Z,99043.63
2022-11-03T14:12:42.825Z,99044.94
2022-11-03T14:15:13.477Z,99040.66
2022-11-03T14:17:48.788Z,99041.81
2022-11-03T14:22:55.159Z,99039.25
2022-11-03T14:25:24.912Z,99040.69
2022-11-03T14:27:57.277Z,99038.44
2022-11-03T14:30:27.694Z,99037.56
2022-11-03T14:33:42.935Z,99031.75
2022-11-03T14:39:42.157Z,99026.66
2022-11-03T14:42:15.954Z,99026.78
2022-11-03T14:44:47.996Z,99034.41
2022-11-03T14:47:19.334Z,99037.19
2022-11-03T14:49:49.765Z,99024.66
2022-11-03T14:52:28.412Z,99021.72
2022-11-03T14:55:02.667Z,99023.19
2022-11-03T14:57:42.160Z,99023.38
2022-11-03T15:00:12.535Z,99026.84
2022-11-03T15:02:43.406Z,99020.22
2022-11-03T15:05:33.508Z,99026.47
2022-11-03T15:08:05.238Z,99038.31
2022-11-03T15:10:35.329Z,99043.09
2022-11-03T15:13:12.064Z,99043.59
2022-11-03T15:15:41.791Z,99051.13
2022-11-03T15:18:12.413Z,99045.13
2022-11-03T15:20:48.344Z,99045.13
2022-11-03T15:26:12.406Z,99053.50
2022-11-03T15:28:43.881Z,99051.31
2022-11-03T15:31:27.628Z,99063.97
2022-11-03T15:34:04.391Z,99054.72
2022-11-03T15:36:37.822Z,99054.34
2022-11-03T15:39:14.674Z,99061.94
2022-11-03T15:41:57.935Z,99056.97
2022-11-03T15:44:37.234Z,99062.56
2022-11-03T15:47:24.834Z,99064.16
2022-11-03T15:49:57.738Z,99077.91
2022-11-03T15:52:35.337Z,99085.88
2022-11-03T15:55:09.425Z,99082.78
2022-11-03T15:57:38.429Z,99092.44
2022-11-03T16:00:16.590Z,99099.69
2022-11-03T16:02:47.115Z,99099.31
2022-11-03T16:05:24.825Z,99118.06
2022-11-03T16:08:02.808Z,99124.47
2022-11-03T16:10:32.862Z,99124.75
2022-11-03T16:13:01.368Z,99127.84
2022-11-03T16:15:29.695Z,99123.69
2022-11-03T16:18:02.877Z,99124.38
2022-11-03T16:20:32.453Z,99136.94
2022-11-03T16:23:00.782Z,99129.59
2022-11-03T16:25:30.086Z,99135.53
2022-11-03T16:28:00.446Z,99133.78
2022-11-03T16:30:28.825Z,99147.66
2022-11-03T16:32:57.156Z,99153.09
2022-11-03T16:35:25.656Z,99155.19
2022-11-03T16:37:54.414Z,99154.47
2022-11-03T16:40:22.935Z,99172.41
2022-11-03T16:42:51.866Z,99178.56
2022-11-03T16:45:23.886Z,99189.41
2022-11-03T16:47:52.394Z,99199.16
2022-11-03T16:50:21.463Z,99207.19
2022-11-03T16:52:51.856Z,99211.94
2022-11-03T16:55:20.617Z,99209.00
2022-11-03T16:57:49.034Z,99210.13
2022-11-03T17:00:20.536Z,99207.63
2022-11-03T17:02:51.503Z,99218.31
2022-11-03T17:05:21.626Z,99227.19
2022-11-03T17:07:53.895Z,99223.44
2022-11-03T17:10:24.621Z,99239.78
2022-11-03T17:12:53.542Z,99240.59
2022-11-03T17:15:22.478Z,99235.50
2022-11-03T17:17:52.692Z,99244.06
2022-11-03T17:20:21.173Z,99251.84
2022-11-03T17:22:49.646Z,99269.47
2022-11-03T17:25:18.951Z,99267.78
2022-11-03T17:27:50.092Z,99267.66
2022-11-03T17:30:22.476Z,99276.38
2022-11-03T17:32:57.415Z,99275.13
2022-11-03T17:35:39.297Z,99282.47
2022-11-03T17:38:14.154Z,99295.09
2022-11-03T17:40:45.312Z,99301.19
2022-11-03T17:43:22.682Z,99313.56
2022-11-03T17:45:51.437Z,99321.88
2022-11-03T17:48:23.001Z,99323.84
2022-11-03T17:50:53.802Z,99325.91
2022-11-03T17:53:26.697Z,99332.28
2022-11-03T17:56:28.402Z,99337.97
2022-11-03T17:58:46.912Z,99340.09
2022-11-03T18:01:22.051Z,99350.75
2022-11-03T18:03:52.911Z,99347.44
2022-11-03T18:06:23.316Z,99359.88
2022-11-03T18:08:51.863Z,99360.19
2022-11-03T18:11:46.373Z,99364.31
2022-11-03T18:14:15.450Z,99375.00
2022-11-03T18:16:44.490Z,99371.13
2022-11-03T18:19:16.956Z,99377.66
2022-11-03T18:21:46.454Z,99388.31
2022-11-03T18:24:19.054Z,99403.41
2022-11-03T18:26:48.730Z,99406.88
2022-11-03T18:29:17.273Z,99416.31
2022-11-03T18:31:49.987Z,99430.72
2022-11-03T18:34:23.599Z,99436.13
2022-11-03T18:36:53.000Z,99439.03
2022-11-03T18:39:25.385Z,99441.66
2022-11-03T18:41:53.944Z,99460.09
2022-11-03T18:44:24.296Z,99457.72
2022-11-03T18:46:56.133Z,99464.66
2022-11-03T18:49:27.601Z,99471.88
2022-11-03T18:52:03.595Z,99478.22
2022-11-03T18:54:33.979Z,99476.03
2022-11-03T18:57:03.578Z,99482.13
2022-11-03T18:59:35.534Z,99487.41
2022-11-03T19:02:04.002Z,99485.19
2022-11-03T19:04:34.211Z,99493.50
2022-11-03T19:07:04.232Z,99496.69
2022-11-03T19:09:32.553Z,99511.78
2022-11-03T19:12:02.814Z,99516.63
2022-11-03T19:14:34.615Z,99518.56
2022-11-03T19:17:24.252Z,99522.56
2022-11-03T19:19:54.865Z,99534.19
2022-11-03T19:22:26.497Z,99540.13
2022-11-03T19:24:54.983Z,99548.41
2022-11-03T19:27:27.964Z,99554.91
2022-11-03T19:29:58.499Z,99559.06
2022-11-03T19:32:30.215Z,99566.22
2022-11-03T19:35:04.440Z,99576.41
2022-11-03T19:37:36.036Z,99580.84
2022-11-03T19:40:09.261Z,99590.81
2022-11-03T19:42:37.491Z,99606.00
2022-11-03T19:45:08.961Z,99605.41
2022-11-03T19:47:47.968Z,99614.66
2022-11-03T19:50:27.186Z,99626.41
2022-11-03T19:52:57.603Z,99627.38
2022-11-03T19:55:31.172Z,99634.28
2022-11-03T19:58:03.395Z,99643.00
2022-11-03T20:00:32.807Z,99647.44
2022-11-03T20:03:03.476Z,99663.22
2022-11-03T20:05:33.858Z,99669.84
2022-11-03T20:08:06.546Z,99682.69
2022-11-03T20:10:36.462Z,99687.25
2022-11-03T20:13:06.105Z,99697.56
2022-11-03T20:15:35.174Z,99705.81
2022-11-03T20:18:03.849Z,99711.56
2022-11-03T20:20:37.433Z,99715.13
2022-11-03T20:23:07.200Z,99722.44
2022-11-03T20:25:38.459Z,99729.84
2022-11-03T20:28:18.175Z,99745.16
2022-11-03T20:30:47.058Z,99748.88
2022-11-03T20:33:18.008Z,99754.38
2022-11-03T20:35:49.297Z,99756.75
2022-11-03T20:38:20.498Z,99765.00
2022-11-03T20:40:55.887Z,99768.81
2022-11-03T20:43:27.841Z,99782.41
2022-11-03T20:45:57.025Z,99788.03
2022-11-03T20:48:26.237Z,99794.38
2022-11-03T20:50:57.615Z,99802.75
2022-11-03T20:53:26.946Z,99802.97
2022-11-03T20:55:55.464Z,99812.25
2022-11-03T20:58:23.838Z,99824.69
2022-11-03T21:00:52.305Z,99840.31
2022-11-03T21:03:37.909Z,99850.09
2022-11-03T21:06:15.037Z,99862.41
2022-11-03T21:08:43.946Z,99864.28
2022-11-03T21:11:28.126Z,99869.78
2022-11-03T21:13:58.532Z,99870.97
2022-11-03T21:16:46.941Z,99884.09
2022-11-03T21:19:37.162Z,99896.63
2022-11-03T21:25:04.559Z,99911.63
2022-11-03T21:27:34.655Z,99922.25
2022-11-03T21:30:06.253Z,99935.72
2022-11-03T21:32:34.810Z,99941.31
2022-11-03T21:35:03.341Z,99949.63
2022-11-03T21:37:33.296Z,99959.53
2022-11-03T21:40:01.962Z,99964.47
2022-11-03T21:42:47.929Z,99971.72
2022-11-03T21:45:16.755Z,99982.56
2022-11-03T21:48:08.737Z,99988.88
2022-11-03T21:50:39.675Z,100011.34
2022-11-03T21:53:10.578Z,100023.00
2022-11-03T21:55:39.710Z,100032.78
2022-11-03T21:58:08.719Z,100042.63
2022-11-03T22:00:37.017Z,100044.50
2022-11-03T22:03:06.477Z,100054.28
2022-11-03T22:05:35.437Z,100064.06
2022-11-03T22:08:04.028Z,100068.56
2022-11-03T22:10:34.035Z,100078.22
2022-11-03T22:13:03.508Z,100089.66
2022-11-03T22:15:49.343Z,100089.72
2022-11-03T22:18:17.971Z,100091.84
2022-11-03T22:21:03.687Z,100101.41
2022-11-03T22:23:49.563Z,100104.03
2022-11-03T22:26:37.158Z,100116.38
2022-11-03T22:29:37.908Z,100126.88
2022-11-03T22:32:13.577Z,100137.47
2022-11-03T22:34:59.828Z,100133.91
2022-11-03T22:40:13.849Z,100154.16
2022-11-03T22:43:01.174Z,100154.47
2022-11-03T22:45:47.282Z,100153.19
2022-11-03T22:48:16.615Z,100164.09
2022-11-03T22:50:45.616Z,100160.63
2022-11-03T22:53:31.504Z,100165.22
2022-11-03T22:56:02.058Z,100177.50
2022-11-03T22:58:32.597Z,100175.81
2022-11-03T23:01:05.573Z,100186.19
2022-11-03T23:03:35.764Z,100185.44
2022-11-03T23:06:05.784Z,100185.44
2022-11-03T23:08:35.845Z,100195.94
2022-11-03T23:11:06.554Z,100221.31
2022-11-03T23:13:37.574Z,100231.72
2022-11-03T23:16:14.306Z,100240.50
2022-11-03T23:19:01.656Z,100242.28
2022-11-03T23:21:31.131Z,100240.59
2022-11-03T23:24:17.012Z,100230.28
2022-11-03T23:26:45.985Z,100228.91
2022-11-03T23:29:17.405Z,100238.66
2022-11-03T23:31:47.065Z,100229.31
2022-11-03T23:34:16.573Z,100240.72
2022-11-03T23:36:45.829Z,100251.28
2022-11-03T23:39:16.271Z,100248.66
2022-11-03T23:41:45.441Z,100249.63
2022-11-03T23:44:16.816Z,100250.56
2022-11-03T23:47:03.311Z,100249.50
2022-11-03T23:49:31.897Z,100260.94
2022-11-03T23:52:00.855Z,100252.34
2022-11-03T23:54:29.260Z,100255.88
2022-11-03T23:57:15.118Z,100258.72
